Hamburg-Finkenwerder Airport EDHI

Flugplatz Daten

Name: Hamburg-Finkenwerder Airport

Ident: EDHI

Lat: 53,53527832

Long: 9,83555603

Platzhöhe: 23 ft

IataCode: XFW

City: Hamburg

Metar

2021/10/20 13:20
EDHI 201320Z 22012KT 170V250 9999 FEW031 BKN042 17/14 Q0998

Taf

Gewünschte Webcam nicht vorhanden? Dann fügen Sie eine hinzu. Sie wird dann so schnell wie möglich freigeschaltet
Url: Title: